This is the latest recevied weather packets stored in our database for station/object WE8M. If no packets are shown the sender has not sent any weather packets the latest 10 day(s).
| Time | Temp. | Humidity | Pressure | Rain* | Wind** | Luminosity | Snow |
|---|---|---|---|---|---|---|---|
| 1778130240 | 6.11° C | 93% | 1015 hPa | 0 mm | - | - | - |
| 1778129937 | 6.67° C | 93% | 1015.1 hPa | 0 mm | - | - | - |
| 1778129633 | 6.67° C | 94% | 1015.1 hPa | 0 mm | - | - | - |
| 1778129330 | 6.67° C | 94% | 1015.1 hPa | 0 mm | - | - | - |
| 1778129027 | 6.67° C | 94% | 1014.9 hPa | 0 mm | - | - | - |
| 1778128723 | 6.67° C | 94% | 1015 hPa | 0 mm | - | - | - |
| 1778128420 | 6.67° C | 94% | 1015 hPa | 0 mm | - | - | - |
| 1778128116 | 6.67° C | 93% | 1015 hPa | 0 mm | - | - | - |
| 1778127812 | 6.67° C | 93% | 1015 hPa | 0 mm | - | - | - |
| 1778127509 | 6.67° C | 93% | 1015 hPa | 0 mm | - | - | - |
| 1778127205 | 6.67° C | 93% | 1014.8 hPa | 0 mm | - | - | - |
| 1778126902 | 7.22° C | 93% | 1014.9 hPa | 0 mm | - | - | - |
| 1778106278 | 13.33° C | 56% | 1013.2 hPa | 0 mm | - | - | - |
| 1778105370 | 13.89° C | 56% | 1013.6 hPa | 0 mm | - | - | - |
| 1778105065 | 13.89° C | 53% | 1013.6 hPa | 0 mm | - | - | - |
| 1778104762 | 13.89° C | 53% | 1013.5 hPa | 0 mm | - | - | - |
| 1778102943 | 14.44° C | 57% | 1013.1 hPa | 0 mm | - | - | - |
| 1778102334 | 14.44° C | 56% | 1013.1 hPa | 0 mm | - | - | - |
| 1778102030 | 14.44° C | 56% | 1013.2 hPa | 0 mm | - | - | - |
| 1778101728 | 15° C | 51% | 1013 hPa | 0 mm | - | - | - |
| 1778101122 | 15° C | 52% | 1013 hPa | 0 mm | - | - | - |
| 1778096574 | 15.56° C | 52% | 1012.8 hPa | 0 mm | - | - | - |
| 1778096272 | 15.56° C | 54% | 1012.8 hPa | 0 mm | - | - | - |
| 1778087180 | 13.89° C | 65% | 1013.4 hPa | 0 mm | - | - | - |
| 1778084754 | 13.33° C | 65% | 1013 hPa | 0 mm | - | - | - |
* Rain latest hour (hover to see other rain measurements)
** Current wind speed in m/s (hover to see current wind gust speed)